sensor_id;sensor_type;location;lat;lon;timestamp;pressure;altitude;pressure_sealevel;temperature;humidity
28267;BME280;15525;45.568;5.448;2023-04-25T00:00:28;97675.09;;;16.71;50.23
28267;BME280;15525;45.568;5.448;2023-04-25T00:02:54;97662.97;;;16.60;50.20
28267;BME280;15525;45.568;5.448;2023-04-25T00:05:22;97679.84;;;16.65;50.47
28267;BME280;15525;45.568;5.448;2023-04-25T00:07:49;97671.44;;;16.58;50.21
28267;BME280;15525;45.568;5.448;2023-04-25T00:10:15;97682.88;;;16.72;50.31
28267;BME280;15525;45.568;5.448;2023-04-25T00:12:40;97669.97;;;16.52;50.48
28267;BME280;15525;45.568;5.448;2023-04-25T00:15:07;97672.81;;;16.47;50.92
28267;BME280;15525;45.568;5.448;2023-04-25T00:17:33;97683.16;;;16.45;51.23
28267;BME280;15525;45.568;5.448;2023-04-25T00:20:00;97680.94;;;16.47;51.01
28267;BME280;15525;45.568;5.448;2023-04-25T00:22:26;97663.59;;;16.48;50.77
28267;BME280;15525;45.568;5.448;2023-04-25T00:24:51;97663.13;;;16.46;50.69
28267;BME280;15525;45.568;5.448;2023-04-25T00:27:18;97672.34;;;16.62;50.62
28267;BME280;15525;45.568;5.448;2023-04-25T00:29:44;97628.75;;;16.38;50.16
28267;BME280;15525;45.568;5.448;2023-04-25T00:32:09;97656.13;;;16.54;50.60
28267;BME280;15525;45.568;5.448;2023-04-25T00:34:35;97647.22;;;16.53;50.63
28267;BME280;15525;45.568;5.448;2023-04-25T00:37:01;97635.50;;;16.49;50.65
28267;BME280;15525;45.568;5.448;2023-04-25T00:39:29;97659.66;;;16.71;50.23
28267;BME280;15525;45.568;5.448;2023-04-25T00:41:55;97645.97;;;16.59;50.16
28267;BME280;15525;45.568;5.448;2023-04-25T00:44:21;97634.53;;;16.54;50.54
28267;BME280;15525;45.568;5.448;2023-04-25T00:46:50;97661.38;;;16.59;51.46
28267;BME280;15525;45.568;5.448;2023-04-25T00:49:15;97639.13;;;16.45;50.90
28267;BME280;15525;45.568;5.448;2023-04-25T00:51:43;97637.38;;;16.49;51.17
28267;BME280;15525;45.568;5.448;2023-04-25T00:54:12;97651.06;;;16.44;51.37
28267;BME280;15525;45.568;5.448;2023-04-25T00:56:38;97625.91;;;16.26;51.53
28267;BME280;15525;45.568;5.448;2023-04-25T00:59:04;97638.28;;;16.27;51.51
28267;BME280;15525;45.568;5.448;2023-04-25T01:01:30;97632.06;;;16.18;51.52
28267;BME280;15525;45.568;5.448;2023-04-25T01:03:58;97608.69;;;15.97;52.20
28267;BME280;15525;45.568;5.448;2023-04-25T01:06:24;97621.84;;;15.98;51.76
28267;BME280;15525;45.568;5.448;2023-04-25T01:08:49;97616.78;;;16.14;51.97
28267;BME280;15525;45.568;5.448;2023-04-25T01:11:16;97592.34;;;16.02;52.28
28267;BME280;15525;45.568;5.448;2023-04-25T01:13:41;97592.97;;;16.07;51.52
28267;BME280;15525;45.568;5.448;2023-04-25T01:16:07;97630.03;;;16.32;51.89
28267;BME280;15525;45.568;5.448;2023-04-25T01:18:33;97627.44;;;16.19;52.33
28267;BME280;15525;45.568;5.448;2023-04-25T01:21:10;97629.53;;;16.22;52.43
28267;BME280;15525;45.568;5.448;2023-04-25T01:23:40;97646.53;;;16.22;52.72
28267;BME280;15525;45.568;5.448;2023-04-25T01:26:07;97634.44;;;16.11;52.45
28267;BME280;15525;45.568;5.448;2023-04-25T01:28:33;97628.19;;;15.85;52.49
28267;BME280;15525;45.568;5.448;2023-04-25T01:30:59;97581.84;;;15.44;52.72
28267;BME280;15525;45.568;5.448;2023-04-25T01:33:25;97634.34;;;15.77;52.31
28267;BME280;15525;45.568;5.448;2023-04-25T01:35:51;97634.13;;;15.65;52.65
28267;BME280;15525;45.568;5.448;2023-04-25T01:38:16;97624.44;;;15.64;52.61
28267;BME280;15525;45.568;5.448;2023-04-25T01:40:44;97641.75;;;15.63;52.74
28267;BME280;15525;45.568;5.448;2023-04-25T01:43:10;97618.75;;;15.35;52.72
28267;BME280;15525;45.568;5.448;2023-04-25T01:45:38;97635.16;;;15.25;53.06
28267;BME280;15525;45.568;5.448;2023-04-25T01:48:09;97636.75;;;15.26;52.85
28267;BME280;15525;45.568;5.448;2023-04-25T01:50:35;97642.63;;;15.28;53.15
28267;BME280;15525;45.568;5.448;2023-04-25T01:53:00;97646.69;;;15.17;53.71
28267;BME280;15525;45.568;5.448;2023-04-25T01:55:27;97656.94;;;15.07;53.94
28267;BME280;15525;45.568;5.448;2023-04-25T01:57:52;97645.03;;;14.86;54.04
28267;BME280;15525;45.568;5.448;2023-04-25T02:00:18;97635.13;;;14.73;54.77
28267;BME280;15525;45.568;5.448;2023-04-25T02:02:43;97625.75;;;14.70;54.25
28267;BME280;15525;45.568;5.448;2023-04-25T02:05:09;97639.72;;;14.72;54.75
28267;BME280;15525;45.568;5.448;2023-04-25T02:07:35;97609.84;;;14.82;53.99
28267;BME280;15525;45.568;5.448;2023-04-25T02:10:00;97635.53;;;14.88;53.76
28267;BME280;15525;45.568;5.448;2023-04-25T02:12:27;97636.84;;;14.69;54.22
28267;BME280;15525;45.568;5.448;2023-04-25T02:14:53;97679.28;;;14.85;54.09
28267;BME280;15525;45.568;5.448;2023-04-25T02:17:18;97636.81;;;14.47;54.70
28267;BME280;15525;45.568;5.448;2023-04-25T02:19:44;97634.16;;;14.69;53.91
28267;BME280;15525;45.568;5.448;2023-04-25T02:22:10;97654.63;;;14.92;53.35
28267;BME280;15525;45.568;5.448;2023-04-25T02:24:35;97657.75;;;15.07;52.28
28267;BME280;15525;45.568;5.448;2023-04-25T02:27:01;97652.81;;;14.87;51.59
28267;BME280;15525;45.568;5.448;2023-04-25T02:29:26;97658.38;;;14.91;50.91
28267;BME280;15525;45.568;5.448;2023-04-25T02:31:52;97673.44;;;15.14;50.70
28267;BME280;15525;45.568;5.448;2023-04-25T02:34:17;97647.75;;;15.08;50.56
28267;BME280;15525;45.568;5.448;2023-04-25T02:36:43;97671.09;;;15.12;50.90
28267;BME280;15525;45.568;5.448;2023-04-25T02:39:08;97644.00;;;14.95;50.88
28267;BME280;15525;45.568;5.448;2023-04-25T02:41:33;97679.59;;;15.28;50.47
28267;BME280;15525;45.568;5.448;2023-04-25T02:43:59;97669.13;;;15.26;50.17
28267;BME280;15525;45.568;5.448;2023-04-25T02:46:24;97646.19;;;15.15;50.37
28267;BME280;15525;45.568;5.448;2023-04-25T02:48:50;97670.09;;;15.08;50.94
28267;BME280;15525;45.568;5.448;2023-04-25T02:51:15;97651.22;;;14.86;50.59
28267;BME280;15525;45.568;5.448;2023-04-25T02:53:41;97640.38;;;15.00;50.26
28267;BME280;15525;45.568;5.448;2023-04-25T02:56:07;97628.81;;;14.77;50.22
28267;BME280;15525;45.568;5.448;2023-04-25T02:58:32;97633.91;;;14.79;50.30
28267;BME280;15525;45.568;5.448;2023-04-25T03:00:58;97656.44;;;14.83;50.44
28267;BME280;15525;45.568;5.448;2023-04-25T03:03:23;97650.50;;;14.94;50.07
28267;BME280;15525;45.568;5.448;2023-04-25T03:05:49;97664.75;;;14.95;50.13
28267;BME280;15525;45.568;5.448;2023-04-25T03:08:16;97678.38;;;15.12;50.64
28267;BME280;15525;45.568;5.448;2023-04-25T03:10:42;97664.72;;;15.08;50.23
28267;BME280;15525;45.568;5.448;2023-04-25T03:13:07;97652.41;;;14.94;50.13
28267;BME280;15525;45.568;5.448;2023-04-25T03:15:33;97665.81;;;14.85;50.83
28267;BME280;15525;45.568;5.448;2023-04-25T03:17:58;97671.69;;;14.87;50.69
28267;BME280;15525;45.568;5.448;2023-04-25T03:20:24;97652.50;;;14.67;50.71
28267;BME280;15525;45.568;5.448;2023-04-25T03:22:49;97658.84;;;14.84;50.82
28267;BME280;15525;45.568;5.448;2023-04-25T03:25:15;97659.31;;;14.86;50.99
28267;BME280;15525;45.568;5.448;2023-04-25T03:27:41;97649.13;;;14.83;50.62
28267;BME280;15525;45.568;5.448;2023-04-25T03:30:07;97615.41;;;14.64;50.97
28267;BME280;15525;45.568;5.448;2023-04-25T03:32:33;97626.81;;;14.47;51.82
28267;BME280;15525;45.568;5.448;2023-04-25T03:35:13;97652.88;;;14.74;51.49
28267;BME280;15525;45.568;5.448;2023-04-25T03:37:38;97629.34;;;14.66;51.59
28267;BME280;15525;45.568;5.448;2023-04-25T03:40:06;97667.03;;;15.01;51.28
28267;BME280;15525;45.568;5.448;2023-04-25T03:42:31;97669.72;;;15.01;51.22
28267;BME280;15525;45.568;5.448;2023-04-25T03:44:57;97649.28;;;15.00;50.55
28267;BME280;15525;45.568;5.448;2023-04-25T03:47:22;97656.38;;;14.96;51.41
28267;BME280;15525;45.568;5.448;2023-04-25T03:49:47;97652.81;;;14.87;51.07
28267;BME280;15525;45.568;5.448;2023-04-25T03:52:14;97665.41;;;14.92;51.30
28267;BME280;15525;45.568;5.448;2023-04-25T03:54:40;97669.38;;;14.94;51.35
28267;BME280;15525;45.568;5.448;2023-04-25T03:57:05;97672.97;;;14.90;51.33
28267;BME280;15525;45.568;5.448;2023-04-25T03:59:31;97686.19;;;15.00;51.24
28267;BME280;15525;45.568;5.448;2023-04-25T04:01:56;97683.84;;;14.98;51.38
28267;BME280;15525;45.568;5.448;2023-04-25T04:04:22;97679.34;;;14.94;51.66
28267;BME280;15525;45.568;5.448;2023-04-25T04:06:47;97664.84;;;14.81;51.45
28267;BME280;15525;45.568;5.448;2023-04-25T04:09:13;97676.66;;;14.94;51.78
28267;BME280;15525;45.568;5.448;2023-04-25T04:11:38;97686.53;;;14.98;51.83
28267;BME280;15525;45.568;5.448;2023-04-25T04:14:05;97673.16;;;14.93;51.22
28267;BME280;15525;45.568;5.448;2023-04-25T04:16:31;97692.22;;;15.19;51.20
28267;BME280;15525;45.568;5.448;2023-04-25T04:18:56;97671.97;;;14.86;51.60
28267;BME280;15525;45.568;5.448;2023-04-25T04:21:22;97697.31;;;14.98;52.08
28267;BME280;15525;45.568;5.448;2023-04-25T04:23:47;97682.22;;;14.97;51.86
28267;BME280;15525;45.568;5.448;2023-04-25T04:26:13;97656.63;;;14.86;51.71
28267;BME280;15525;45.568;5.448;2023-04-25T04:28:40;97684.69;;;15.07;51.57
28267;BME280;15525;45.568;5.448;2023-04-25T04:31:05;97672.50;;;15.10;51.47
28267;BME280;15525;45.568;5.448;2023-04-25T04:33:32;97689.56;;;15.05;51.54
28267;BME280;15525;45.568;5.448;2023-04-25T04:35:58;97710.81;;;14.85;52.55
28267;BME280;15525;45.568;5.448;2023-04-25T04:38:24;97672.94;;;14.68;52.49
28267;BME280;15525;45.568;5.448;2023-04-25T04:40:50;97689.13;;;14.90;52.16
28267;BME280;15525;45.568;5.448;2023-04-25T04:43:15;97707.66;;;15.05;52.17
28267;BME280;15525;45.568;5.448;2023-04-25T04:45:42;97704.28;;;14.99;52.69
28267;BME280;15525;45.568;5.448;2023-04-25T04:48:08;97715.66;;;14.96;52.46
28267;BME280;15525;45.568;5.448;2023-04-25T04:50:33;97697.34;;;14.85;52.76
28267;BME280;15525;45.568;5.448;2023-04-25T04:52:59;97704.72;;;14.93;52.24
28267;BME280;15525;45.568;5.448;2023-04-25T04:55:25;97704.19;;;14.91;52.62
28267;BME280;15525;45.568;5.448;2023-04-25T04:57:50;97687.72;;;14.92;52.26
28267;BME280;15525;45.568;5.448;2023-04-25T05:00:16;97708.50;;;14.92;52.15
28267;BME280;15525;45.568;5.448;2023-04-25T05:02:41;97717.06;;;14.94;52.07
28267;BME280;15525;45.568;5.448;2023-04-25T05:05:07;97736.50;;;15.04;52.36
28267;BME280;15525;45.568;5.448;2023-04-25T05:07:33;97720.88;;;14.93;52.59
28267;BME280;15525;45.568;5.448;2023-04-25T05:09:59;97744.53;;;14.96;52.49
28267;BME280;15525;45.568;5.448;2023-04-25T05:12:24;97693.59;;;14.72;52.45
28267;BME280;15525;45.568;5.448;2023-04-25T05:14:50;97742.16;;;14.94;52.65
28267;BME280;15525;45.568;5.448;2023-04-25T05:17:15;97726.81;;;14.81;52.93
28267;BME280;15525;45.568;5.448;2023-04-25T05:19:40;97739.88;;;14.88;52.58
28267;BME280;15525;45.568;5.448;2023-04-25T05:22:06;97739.22;;;15.04;52.37
28267;BME280;15525;45.568;5.448;2023-04-25T05:24:31;97731.84;;;14.96;52.20
28267;BME280;15525;45.568;5.448;2023-04-25T05:26:57;97748.03;;;15.18;52.03
28267;BME280;15525;45.568;5.448;2023-04-25T05:29:22;97748.69;;;15.37;51.57
28267;BME280;15525;45.568;5.448;2023-04-25T05:31:48;97733.78;;;15.40;51.54
28267;BME280;15525;45.568;5.448;2023-04-25T05:34:13;97742.56;;;15.45;51.53
28267;BME280;15525;45.568;5.448;2023-04-25T05:36:39;97764.75;;;15.64;51.63
28267;BME280;15525;45.568;5.448;2023-04-25T05:39:04;97745.38;;;15.40;51.75
28267;BME280;15525;45.568;5.448;2023-04-25T05:41:31;97748.88;;;15.41;51.69
28267;BME280;15525;45.568;5.448;2023-04-25T05:43:56;97754.94;;;15.46;51.54
28267;BME280;15525;45.568;5.448;2023-04-25T05:46:21;97746.16;;;15.63;51.30
28267;BME280;15525;45.568;5.448;2023-04-25T05:48:47;97761.13;;;15.69;50.85
28267;BME280;15525;45.568;5.448;2023-04-25T05:51:12;97769.09;;;15.74;51.50
28267;BME280;15525;45.568;5.448;2023-04-25T05:53:38;97760.22;;;15.51;51.87
28267;BME280;15525;45.568;5.448;2023-04-25T05:56:03;97770.00;;;15.47;51.96
28267;BME280;15525;45.568;5.448;2023-04-25T05:58:29;97766.09;;;15.53;51.77
28267;BME280;15525;45.568;5.448;2023-04-25T06:00:55;97770.81;;;15.48;51.87
28267;BME280;15525;45.568;5.448;2023-04-25T06:03:20;97754.69;;;15.34;51.86
28267;BME280;15525;45.568;5.448;2023-04-25T06:05:46;97767.28;;;15.39;51.93
28267;BME280;15525;45.568;5.448;2023-04-25T06:08:11;97758.75;;;15.45;51.74
28267;BME280;15525;45.568;5.448;2023-04-25T06:10:37;97781.63;;;15.70;51.58
28267;BME280;15525;45.568;5.448;2023-04-25T06:13:04;97780.25;;;15.81;50.94
28267;BME280;15525;45.568;5.448;2023-04-25T06:15:29;97780.16;;;15.94;50.83
28267;BME280;15525;45.568;5.448;2023-04-25T06:17:55;97770.47;;;15.93;50.44
28267;BME280;15525;45.568;5.448;2023-04-25T06:20:21;97789.34;;;15.93;50.60
28267;BME280;15525;45.568;5.448;2023-04-25T06:22:49;97802.91;;;16.02;50.74
28267;BME280;15525;45.568;5.448;2023-04-25T06:25:15;97784.22;;;15.83;50.44
28267;BME280;15525;45.568;5.448;2023-04-25T06:27:40;97779.66;;;15.92;50.78
28267;BME280;15525;45.568;5.448;2023-04-25T06:30:06;97776.56;;;16.07;50.95
28267;BME280;15525;45.568;5.448;2023-04-25T06:32:32;97772.53;;;16.27;50.06
28267;BME280;15525;45.568;5.448;2023-04-25T06:34:57;97774.31;;;16.31;49.98
28267;BME280;15525;45.568;5.448;2023-04-25T06:37:23;97771.66;;;16.09;50.74
28267;BME280;15525;45.568;5.448;2023-04-25T06:39:48;97773.13;;;16.15;50.41
28267;BME280;15525;45.568;5.448;2023-04-25T06:42:14;97792.06;;;16.63;50.45
28267;BME280;15525;45.568;5.448;2023-04-25T06:44:39;97750.31;;;16.86;49.32
28267;BME280;15525;45.568;5.448;2023-04-25T06:47:05;97776.25;;;17.12;49.14
28267;BME280;15525;45.568;5.448;2023-04-25T06:49:30;97788.75;;;16.74;49.51
28267;BME280;15525;45.568;5.448;2023-04-25T06:51:56;97775.03;;;16.62;49.64
28267;BME280;15525;45.568;5.448;2023-04-25T06:54:21;97776.06;;;16.83;49.19
28267;BME280;15525;45.568;5.448;2023-04-25T06:56:46;97763.34;;;17.26;48.69
28267;BME280;15525;45.568;5.448;2023-04-25T06:59:12;97785.63;;;16.98;48.92
28267;BME280;15525;45.568;5.448;2023-04-25T07:01:37;97779.13;;;16.99;48.86
28267;BME280;15525;45.568;5.448;2023-04-25T07:04:03;97772.91;;;16.98;48.82
28267;BME280;15525;45.568;5.448;2023-04-25T07:06:28;97782.44;;;16.87;48.53
28267;BME280;15525;45.568;5.448;2023-04-25T07:08:54;97780.00;;;16.69;49.15
28267;BME280;15525;45.568;5.448;2023-04-25T07:11:20;97783.50;;;16.69;48.70
28267;BME280;15525;45.568;5.448;2023-04-25T07:13:46;97786.34;;;15.95;49.80
28267;BME280;15525;45.568;5.448;2023-04-25T07:16:11;97806.78;;;15.87;49.69
28267;BME280;15525;45.568;5.448;2023-04-25T07:18:36;97781.13;;;15.98;49.51
28267;BME280;15525;45.568;5.448;2023-04-25T07:21:02;97777.75;;;16.62;48.45
28267;BME280;15525;45.568;5.448;2023-04-25T07:23:28;97779.91;;;16.43;48.10
28267;BME280;15525;45.568;5.448;2023-04-25T07:25:53;97763.25;;;16.50;48.14
28267;BME280;15525;45.568;5.448;2023-04-25T07:28:19;97788.47;;;16.84;47.48
28267;BME280;15525;45.568;5.448;2023-04-25T07:30:44;97790.38;;;16.84;48.17
28267;BME280;15525;45.568;5.448;2023-04-25T07:33:10;97732.66;;;16.80;47.44
28267;BME280;15525;45.568;5.448;2023-04-25T07:35:35;97791.88;;;17.49;46.59
28267;BME280;15525;45.568;5.448;2023-04-25T07:38:02;97784.38;;;17.12;46.45
28267;BME280;15525;45.568;5.448;2023-04-25T07:40:28;97795.34;;;17.07;46.66
28267;BME280;15525;45.568;5.448;2023-04-25T07:42:53;97798.84;;;17.08;46.79
28267;BME280;15525;45.568;5.448;2023-04-25T07:45:18;97800.31;;;17.39;46.31
28267;BME280;15525;45.568;5.448;2023-04-25T07:47:44;97803.34;;;17.63;45.75
28267;BME280;15525;45.568;5.448;2023-04-25T07:50:10;97795.38;;;17.67;45.66
28267;BME280;15525;45.568;5.448;2023-04-25T07:52:36;97792.63;;;17.92;45.48
28267;BME280;15525;45.568;5.448;2023-04-25T07:55:01;97826.72;;;17.76;44.79
28267;BME280;15525;45.568;5.448;2023-04-25T07:57:27;97810.34;;;17.73;45.07
28267;BME280;15525;45.568;5.448;2023-04-25T07:59:52;97811.75;;;17.87;44.56
28267;BME280;15525;45.568;5.448;2023-04-25T08:02:17;97818.31;;;17.69;45.38
28267;BME280;15525;45.568;5.448;2023-04-25T08:04:43;97805.06;;;17.76;45.07
28267;BME280;15525;45.568;5.448;2023-04-25T08:07:08;97818.78;;;17.71;45.07
28267;BME280;15525;45.568;5.448;2023-04-25T08:09:35;97836.75;;;17.67;44.95
28267;BME280;15525;45.568;5.448;2023-04-25T08:12:02;97835.69;;;17.68;45.28
28267;BME280;15525;45.568;5.448;2023-04-25T08:14:28;97844.69;;;18.06;44.56
28267;BME280;15525;45.568;5.448;2023-04-25T08:16:56;97822.84;;;18.11;44.07
28267;BME280;15525;45.568;5.448;2023-04-25T08:19:21;97832.00;;;18.53;43.36
28267;BME280;15525;45.568;5.448;2023-04-25T08:21:47;97840.06;;;18.15;43.92
28267;BME280;15525;45.568;5.448;2023-04-25T08:24:12;97834.59;;;18.41;43.34
28267;BME280;15525;45.568;5.448;2023-04-25T08:26:38;97819.16;;;19.20;42.01
28267;BME280;15525;45.568;5.448;2023-04-25T08:29:04;97836.16;;;19.08;42.05
28267;BME280;15525;45.568;5.448;2023-04-25T08:31:30;97829.63;;;18.43;42.26
28267;BME280;15525;45.568;5.448;2023-04-25T08:33:56;97833.19;;;18.35;42.60
28267;BME280;15525;45.568;5.448;2023-04-25T08:36:21;97836.81;;;18.30;42.44
28267;BME280;15525;45.568;5.448;2023-04-25T08:38:46;97848.47;;;18.31;42.73
28267;BME280;15525;45.568;5.448;2023-04-25T08:41:13;97865.84;;;18.84;41.71
28267;BME280;15525;45.568;5.448;2023-04-25T08:43:42;97853.31;;;19.29;40.41
28267;BME280;15525;45.568;5.448;2023-04-25T08:46:09;97857.78;;;20.07;39.74
28267;BME280;15525;45.568;5.448;2023-04-25T08:48:36;97848.03;;;20.06;39.48
28267;BME280;15525;45.568;5.448;2023-04-25T08:51:02;97859.56;;;20.03;39.65
28267;BME280;15525;45.568;5.448;2023-04-25T08:53:32;97856.44;;;19.60;40.30
28267;BME280;15525;45.568;5.448;2023-04-25T08:56:00;97879.66;;;20.11;38.81
28267;BME280;15525;45.568;5.448;2023-04-25T08:58:28;97870.03;;;20.46;37.76
28267;BME280;15525;45.568;5.448;2023-04-25T09:00:54;97858.84;;;20.15;38.54
28267;BME280;15525;45.568;5.448;2023-04-25T09:03:20;97857.38;;;19.64;39.66
28267;BME280;15525;45.568;5.448;2023-04-25T09:05:45;97864.97;;;19.50;40.20
28267;BME280;15525;45.568;5.448;2023-04-25T09:08:11;97873.31;;;19.66;39.71
28267;BME280;15525;45.568;5.448;2023-04-25T09:10:37;97860.19;;;19.88;37.64
28267;BME280;15525;45.568;5.448;2023-04-25T09:13:08;97862.91;;;19.88;37.62
28267;BME280;15525;45.568;5.448;2023-04-25T09:15:47;97868.16;;;20.05;36.66
28267;BME280;15525;45.568;5.448;2023-04-25T09:18:14;97849.69;;;20.19;37.61
28267;BME280;15525;45.568;5.448;2023-04-25T09:20:46;97865.66;;;20.21;37.89
28267;BME280;15525;45.568;5.448;2023-04-25T09:23:14;97887.38;;;20.09;37.79
28267;BME280;15525;45.568;5.448;2023-04-25T09:25:40;97864.56;;;20.34;37.66
28267;BME280;15525;45.568;5.448;2023-04-25T09:28:06;97879.19;;;21.34;36.62
28267;BME280;15525;45.568;5.448;2023-04-25T09:30:35;97878.84;;;21.00;34.02
28267;BME280;15525;45.568;5.448;2023-04-25T09:33:11;97880.16;;;20.13;34.51
28267;BME280;15525;45.568;5.448;2023-04-25T09:35:42;97897.44;;;19.67;36.52
28267;BME280;15525;45.568;5.448;2023-04-25T09:40:34;97889.88;;;19.93;35.35
28267;BME280;15525;45.568;5.448;2023-04-25T09:43:09;97870.97;;;20.50;33.66
28267;BME280;15525;45.568;5.448;2023-04-25T09:45:41;97901.00;;;19.80;34.15
28267;BME280;15525;45.568;5.448;2023-04-25T09:48:07;97891.84;;;19.23;35.08
28267;BME280;15525;45.568;5.448;2023-04-25T09:50:33;97895.88;;;19.08;35.86
28267;BME280;15525;45.568;5.448;2023-04-25T09:53:04;97892.09;;;18.55;35.60
28267;BME280;15525;45.568;5.448;2023-04-25T09:55:32;97887.06;;;19.11;35.45
28267;BME280;15525;45.568;5.448;2023-04-25T09:58:04;97898.47;;;19.95;35.08
28267;BME280;15525;45.568;5.448;2023-04-25T10:00:32;97895.94;;;19.78;34.94
28267;BME280;15525;45.568;5.448;2023-04-25T10:03:01;97893.97;;;19.99;35.35
28267;BME280;15525;45.568;5.448;2023-04-25T10:05:30;97908.38;;;20.20;35.90
28267;BME280;15525;45.568;5.448;2023-04-25T10:07:59;97888.31;;;20.25;35.81
28267;BME280;15525;45.568;5.448;2023-04-25T10:10:28;97896.88;;;20.35;35.83
28267;BME280;15525;45.568;5.448;2023-04-25T10:12:55;97896.13;;;20.59;35.79
28267;BME280;15525;45.568;5.448;2023-04-25T10:15:21;97894.72;;;21.10;35.45
28267;BME280;15525;45.568;5.448;2023-04-25T10:17:49;97873.53;;;20.46;35.59
28267;BME280;15525;45.568;5.448;2023-04-25T10:20:15;97860.38;;;20.36;35.39
28267;BME280;15525;45.568;5.448;2023-04-25T10:22:42;97889.06;;;21.15;35.17
28267;BME280;15525;45.568;5.448;2023-04-25T10:25:09;97878.63;;;21.17;35.13
28267;BME280;15525;45.568;5.448;2023-04-25T10:27:36;97882.50;;;19.94;35.85
28267;BME280;15525;45.568;5.448;2023-04-25T10:32:31;97867.28;;;20.01;35.13
28267;BME280;15525;45.568;5.448;2023-04-25T10:34:57;97871.91;;;20.78;34.69
28267;BME280;15525;45.568;5.448;2023-04-25T10:37:24;97874.44;;;21.83;33.38
28267;BME280;15525;45.568;5.448;2023-04-25T10:39:49;97900.91;;;21.82;32.96
28267;BME280;15525;45.568;5.448;2023-04-25T10:42:15;97880.66;;;21.32;32.48
28267;BME280;15525;45.568;5.448;2023-04-25T10:44:40;97861.72;;;21.87;32.17
28267;BME280;15525;45.568;5.448;2023-04-25T10:47:07;97859.38;;;22.01;29.44
28267;BME280;15525;45.568;5.448;2023-04-25T10:49:42;97861.63;;;22.26;29.55
28267;BME280;15525;45.568;5.448;2023-04-25T10:52:26;97866.94;;;22.78;29.20
28267;BME280;15525;45.568;5.448;2023-04-25T10:54:56;97860.53;;;23.51;28.96
28267;BME280;15525;45.568;5.448;2023-04-25T10:57:34;97869.91;;;23.04;28.84
28267;BME280;15525;45.568;5.448;2023-04-25T11:02:30;97866.25;;;22.38;30.54
28267;BME280;15525;45.568;5.448;2023-04-25T11:04:56;97870.34;;;21.89;31.62
28267;BME280;15525;45.568;5.448;2023-04-25T11:09:56;97858.34;;;23.95;29.70
28267;BME280;15525;45.568;5.448;2023-04-25T11:12:21;97845.03;;;23.40;30.92
28267;BME280;15525;45.568;5.448;2023-04-25T11:14:46;97857.41;;;23.03;31.36
28267;BME280;15525;45.568;5.448;2023-04-25T11:17:12;97851.50;;;22.54;32.12
28267;BME280;15525;45.568;5.448;2023-04-25T11:19:37;97863.41;;;21.28;32.49
28267;BME280;15525;45.568;5.448;2023-04-25T11:22:03;97862.25;;;21.41;31.91
28267;BME280;15525;45.568;5.448;2023-04-25T11:26:55;97838.09;;;23.61;29.37
28267;BME280;15525;45.568;5.448;2023-04-25T11:29:26;97847.38;;;24.55;27.80
28267;BME280;15525;45.568;5.448;2023-04-25T11:31:52;97859.59;;;23.97;29.38
28267;BME280;15525;45.568;5.448;2023-04-25T11:34:19;97858.66;;;21.76;30.88
28267;BME280;15525;45.568;5.448;2023-04-25T11:36:45;97864.31;;;21.32;31.78
28267;BME280;15525;45.568;5.448;2023-04-25T11:39:11;97838.97;;;20.02;33.04
28267;BME280;15525;45.568;5.448;2023-04-25T11:41:37;97860.81;;;21.19;32.20
28267;BME280;15525;45.568;5.448;2023-04-25T11:44:03;97842.44;;;22.66;30.97
28267;BME280;15525;45.568;5.448;2023-04-25T11:46:29;97838.13;;;22.65;30.66
28267;BME280;15525;45.568;5.448;2023-04-25T11:48:55;97836.47;;;22.76;30.71
28267;BME280;15525;45.568;5.448;2023-04-25T11:51:22;97849.38;;;22.05;31.40
28267;BME280;15525;45.568;5.448;2023-04-25T11:53:47;97841.81;;;22.72;30.65
28267;BME280;15525;45.568;5.448;2023-04-25T11:56:12;97819.38;;;22.79;29.80
28267;BME280;15525;45.568;5.448;2023-04-25T11:58:57;97853.06;;;23.17;29.30
28267;BME280;15525;45.568;5.448;2023-04-25T12:01:34;97825.09;;;23.93;28.47
28267;BME280;15525;45.568;5.448;2023-04-25T12:04:17;97843.72;;;23.34;28.84
28267;BME280;15525;45.568;5.448;2023-04-25T12:06:43;97823.13;;;23.21;28.54
28267;BME280;15525;45.568;5.448;2023-04-25T12:09:12;97845.28;;;22.54;28.32
28267;BME280;15525;45.568;5.448;2023-04-25T12:11:45;97829.38;;;23.21;27.40
28267;BME280;15525;45.568;5.448;2023-04-25T12:14:12;97819.34;;;23.10;27.61
28267;BME280;15525;45.568;5.448;2023-04-25T12:16:44;97840.59;;;23.51;28.01
28267;BME280;15525;45.568;5.448;2023-04-25T12:19:12;97840.09;;;23.30;28.82
28267;BME280;15525;45.568;5.448;2023-04-25T12:21:39;97830.66;;;23.43;28.59
28267;BME280;15525;45.568;5.448;2023-04-25T12:24:33;97840.69;;;24.30;26.92
28267;BME280;15525;45.568;5.448;2023-04-25T12:27:03;97835.81;;;24.20;28.30
28267;BME280;15525;45.568;5.448;2023-04-25T12:29:31;97835.03;;;24.61;27.50
28267;BME280;15525;45.568;5.448;2023-04-25T12:31:57;97841.19;;;24.81;27.68
28267;BME280;15525;45.568;5.448;2023-04-25T12:34:23;97829.78;;;24.75;26.63
28267;BME280;15525;45.568;5.448;2023-04-25T12:36:50;97842.81;;;24.82;26.96
28267;BME280;15525;45.568;5.448;2023-04-25T12:39:23;97820.72;;;25.46;27.44
28267;BME280;15525;45.568;5.448;2023-04-25T12:41:52;97834.47;;;26.08;26.39
28267;BME280;15525;45.568;5.448;2023-04-25T12:44:19;97830.53;;;26.46;26.26
28267;BME280;15525;45.568;5.448;2023-04-25T12:46:45;97816.22;;;26.26;25.92
28267;BME280;15525;45.568;5.448;2023-04-25T12:49:10;97831.50;;;26.24;26.11
28267;BME280;15525;45.568;5.448;2023-04-25T12:51:37;97823.59;;;25.04;27.09
28267;BME280;15525;45.568;5.448;2023-04-25T12:54:04;97822.41;;;25.05;26.14
28267;BME280;15525;45.568;5.448;2023-04-25T12:56:31;97831.75;;;25.01;27.06
28267;BME280;15525;45.568;5.448;2023-04-25T12:58:57;97826.88;;;25.39;27.47
28267;BME280;15525;45.568;5.448;2023-04-25T13:01:23;97830.81;;;23.69;26.49
28267;BME280;15525;45.568;5.448;2023-04-25T13:03:49;97843.13;;;23.09;27.20
28267;BME280;15525;45.568;5.448;2023-04-25T13:06:16;97831.66;;;22.42;28.10
28267;BME280;15525;45.568;5.448;2023-04-25T13:08:41;97829.56;;;23.13;28.43